createdAt,value
2022-12-31T00:00:02.369Z,99832.72
2022-12-31T00:02:29.083Z,99841.44
2022-12-31T00:04:55.631Z,99843.75
2022-12-31T00:07:22.006Z,99840.63
2022-12-31T00:09:48.567Z,99838.63
2022-12-31T00:12:14.938Z,99840.75
2022-12-31T00:14:41.354Z,99833.41
2022-12-31T00:17:07.825Z,99828.09
2022-12-31T00:19:34.352Z,99824.91
2022-12-31T00:22:00.705Z,99826.28
2022-12-31T00:24:30.902Z,99830.66
2022-12-31T00:26:57.347Z,99829.38
2022-12-31T00:29:23.712Z,99830.09
2022-12-31T00:31:50.049Z,99837.34
2022-12-31T00:34:16.435Z,99840.41
2022-12-31T00:36:43.055Z,99840.88
2022-12-31T00:39:10.273Z,99832.19
2022-12-31T00:41:36.949Z,99827.44
2022-12-31T00:44:03.866Z,99826.72
2022-12-31T00:46:31.596Z,99824.22
2022-12-31T00:48:58.097Z,99828.53
2022-12-31T00:51:27.392Z,99835.06
2022-12-31T00:53:55.361Z,99841.25
2022-12-31T00:56:22.602Z,99847.97
2022-12-31T00:58:49.535Z,99848.38
2022-12-31T01:01:21.882Z,99840.69
2022-12-31T01:03:49.867Z,99844.44
2022-12-31T01:06:17.176Z,99844.19
2022-12-31T01:08:43.886Z,99846.81
2022-12-31T01:11:24.003Z,99860.19
2022-12-31T01:13:56.604Z,99851.84
2022-12-31T01:16:25.792Z,99849.75
2022-12-31T01:18:52.221Z,99866.84
2022-12-31T01:21:19.504Z,99870.28
2022-12-31T01:23:45.946Z,99876.31
2022-12-31T01:26:14.341Z,99869.09
2022-12-31T01:28:40.967Z,99875.31
2022-12-31T01:31:09.589Z,99870.06
2022-12-31T01:33:36.445Z,99865.09
2022-12-31T01:36:11.458Z,99879.97
2022-12-31T01:38:38.451Z,99870.81
2022-12-31T01:41:05.395Z,99875.13
2022-12-31T01:43:51.355Z,99869.53
2022-12-31T01:46:43.768Z,99870.75
2022-12-31T01:49:11.328Z,99868.41
2022-12-31T01:51:38.397Z,99863.47
2022-12-31T01:54:07.328Z,99859.13
2022-12-31T01:56:34.416Z,99864.41
2022-12-31T01:59:01.508Z,99867.25
2022-12-31T02:01:29.824Z,99860.97
2022-12-31T02:03:57.295Z,99858.63
2022-12-31T02:06:35.159Z,99856.22
2022-12-31T02:09:01.818Z,99860.34
2022-12-31T02:11:31.346Z,99872.53
2022-12-31T02:14:02.299Z,99862.00
2022-12-31T02:16:37.748Z,99854.84
2022-12-31T02:19:19.553Z,99857.47
2022-12-31T02:21:55.716Z,99858.97
2022-12-31T02:24:48.360Z,99865.00
2022-12-31T02:27:39.565Z,99866.72
2022-12-31T02:30:11.749Z,99861.59
2022-12-31T02:33:03.027Z,99872.16
2022-12-31T02:35:34.509Z,99857.53
2022-12-31T02:38:05.088Z,99865.75
2022-12-31T02:40:34.494Z,99857.91
2022-12-31T02:43:00.884Z,99852.59
2022-12-31T02:45:31.305Z,99860.75
2022-12-31T02:48:12.233Z,99860.50
2022-12-31T02:51:12.777Z,99869.88
2022-12-31T02:53:48.067Z,99887.19
2022-12-31T02:56:31.428Z,99882.19
2022-12-31T02:59:19.970Z,99901.16
2022-12-31T03:02:09.470Z,99884.03
2022-12-31T03:04:36.621Z,99863.56
2022-12-31T03:07:13.877Z,99882.31
2022-12-31T03:09:40.320Z,99860.66
2022-12-31T03:12:27.613Z,99882.66
2022-12-31T03:14:54.142Z,99875.22
2022-12-31T03:17:20.603Z,99882.47
2022-12-31T03:20:05.510Z,99866.44
2022-12-31T03:22:34.198Z,99890.19
2022-12-31T03:25:26.012Z,99879.97
2022-12-31T03:27:52.740Z,99898.63
2022-12-31T03:30:20.376Z,99889.84
2022-12-31T03:32:47.071Z,99894.94
2022-12-31T03:35:15.281Z,99878.59
2022-12-31T03:37:42.767Z,99884.69
2022-12-31T03:40:11.522Z,99891.50
2022-12-31T03:42:38.157Z,99903.13
2022-12-31T03:45:05.242Z,99904.59
2022-12-31T03:47:31.621Z,99894.97
2022-12-31T03:49:57.965Z,99905.09
2022-12-31T03:52:24.347Z,99910.31
2022-12-31T03:54:50.750Z,99912.56
2022-12-31T03:57:17.251Z,99928.41
2022-12-31T03:59:43.679Z,99922.84
2022-12-31T04:02:10.445Z,99925.31
2022-12-31T04:04:36.915Z,99934.13
2022-12-31T04:07:03.329Z,99939.28
2022-12-31T04:09:29.693Z,99929.09
2022-12-31T04:11:56.016Z,99937.91
2022-12-31T04:14:22.386Z,99944.94
2022-12-31T04:16:48.826Z,99946.97
2022-12-31T04:19:15.212Z,99939.22
2022-12-31T04:21:41.617Z,99956.50
2022-12-31T04:24:08.031Z,99946.00
2022-12-31T04:26:35.036Z,99949.03
2022-12-31T04:29:01.521Z,99942.47
2022-12-31T04:31:28.120Z,99960.75
2022-12-31T04:33:54.569Z,99953.63
2022-12-31T04:36:20.995Z,99953.56
2022-12-31T04:38:47.456Z,99941.28
2022-12-31T04:41:20.829Z,99952.53
2022-12-31T04:43:52.202Z,99953.00
2022-12-31T04:46:21.335Z,99945.72
2022-12-31T04:48:47.860Z,99957.91
2022-12-31T04:51:14.680Z,99948.94
2022-12-31T04:53:41.311Z,99944.50
2022-12-31T04:56:07.949Z,99945.13
2022-12-31T04:58:34.668Z,99945.00
2022-12-31T05:01:01.240Z,99949.03
2022-12-31T05:03:27.893Z,99966.63
2022-12-31T05:05:54.882Z,99964.44
2022-12-31T05:08:21.256Z,99966.72
2022-12-31T05:10:48.982Z,99962.59
2022-12-31T05:13:15.721Z,99962.28
2022-12-31T05:15:42.497Z,99971.69
2022-12-31T05:18:09.238Z,99974.16
2022-12-31T05:20:35.572Z,99979.03
2022-12-31T05:23:01.971Z,99979.50
2022-12-31T05:25:28.410Z,99978.22
2022-12-31T05:27:54.805Z,99978.69
2022-12-31T05:30:21.513Z,99986.41
2022-12-31T05:32:47.919Z,99975.09
2022-12-31T05:35:14.558Z,99971.34
2022-12-31T05:37:40.966Z,99967.91
2022-12-31T05:40:07.800Z,99968.16
2022-12-31T05:42:34.543Z,99940.75
2022-12-31T05:45:00.911Z,99951.72
2022-12-31T05:47:27.460Z,99954.53
2022-12-31T05:49:53.799Z,99957.81
2022-12-31T05:52:20.763Z,99957.31
2022-12-31T05:54:47.157Z,99956.34
2022-12-31T05:57:13.609Z,99958.00
2022-12-31T05:59:39.964Z,99957.81
2022-12-31T06:02:06.356Z,99960.69
2022-12-31T06:04:32.826Z,99969.97
2022-12-31T06:06:59.356Z,99974.91
2022-12-31T06:09:25.827Z,99978.16
2022-12-31T06:11:52.247Z,99986.53
2022-12-31T06:14:18.694Z,99983.66
2022-12-31T06:16:45.088Z,99989.28
2022-12-31T06:19:11.425Z,99983.81
2022-12-31T06:21:37.779Z,99981.41
2022-12-31T06:24:04.508Z,99974.47
2022-12-31T06:26:30.840Z,99985.91
2022-12-31T06:28:57.185Z,100000.78
2022-12-31T06:31:23.688Z,99996.28
2022-12-31T06:33:50.092Z,99993.88
2022-12-31T06:36:16.489Z,100001.25
2022-12-31T06:38:43.729Z,100007.19
2022-12-31T06:41:12.441Z,100011.41
2022-12-31T06:43:40.083Z,100024.31
2022-12-31T06:46:08.046Z,100028.00
2022-12-31T06:48:34.811Z,100028.66
2022-12-31T06:51:15.041Z,100018.38
2022-12-31T06:53:43.688Z,100019.75
2022-12-31T06:56:34.075Z,100018.66
2022-12-31T06:59:01.282Z,100021.81
2022-12-31T07:01:38.973Z,100009.53
2022-12-31T07:04:26.212Z,100015.25
2022-12-31T07:07:06.753Z,100028.22
2022-12-31T07:09:52.927Z,100027.47
2022-12-31T07:12:42.558Z,100029.28
2022-12-31T07:15:33.793Z,100035.16
2022-12-31T07:18:37.211Z,100036.44
2022-12-31T07:21:03.742Z,100032.81
2022-12-31T07:23:30.326Z,100042.31
2022-12-31T07:26:24.257Z,100040.44
2022-12-31T07:29:11.493Z,100041.59
2022-12-31T07:32:18.515Z,100043.88
2022-12-31T07:35:12.115Z,100040.19
2022-12-31T07:37:59.896Z,100057.72
2022-12-31T07:40:34.572Z,100054.72
2022-12-31T07:43:22.217Z,100061.78
2022-12-31T07:46:13.229Z,100067.59
2022-12-31T07:48:39.842Z,100071.72
2022-12-31T07:51:06.691Z,100075.94
2022-12-31T07:53:33.279Z,100069.47
2022-12-31T07:56:00.829Z,100075.59
2022-12-31T07:58:48.312Z,100081.09
2022-12-31T08:01:17.048Z,100095.69
2022-12-31T08:04:10.052Z,100079.25
2022-12-31T08:06:56.879Z,100080.94
2022-12-31T08:09:31.196Z,100090.69
2022-12-31T08:11:59.505Z,100097.69
2022-12-31T08:14:26.793Z,100103.66
2022-12-31T08:16:53.978Z,100109.91
2022-12-31T08:19:27.608Z,100120.84
2022-12-31T08:22:40.514Z,100114.88
2022-12-31T08:25:33.027Z,100127.00
2022-12-31T08:28:14.685Z,100111.88
2022-12-31T08:31:10.939Z,100125.75
2022-12-31T08:33:49.053Z,100121.28
2022-12-31T08:36:36.212Z,100133.31
2022-12-31T08:39:25.397Z,100132.50
2022-12-31T08:41:54.663Z,100145.41
2022-12-31T08:44:44.752Z,100132.63
2022-12-31T08:47:26.351Z,100140.38
2022-12-31T08:49:52.901Z,100131.59
2022-12-31T08:52:23.782Z,100131.41
2022-12-31T08:54:50.432Z,100134.78
2022-12-31T08:57:26.243Z,100129.38
2022-12-31T08:59:57.880Z,100129.84
2022-12-31T09:02:48.279Z,100128.75
2022-12-31T09:05:31.161Z,100132.75
2022-12-31T09:08:14.693Z,100137.97
2022-12-31T09:10:51.587Z,100130.78
2022-12-31T09:13:27.994Z,100133.22
2022-12-31T09:16:24.901Z,100153.63
2022-12-31T09:18:51.318Z,100145.91
2022-12-31T09:21:17.857Z,100154.03
2022-12-31T09:23:44.426Z,100140.56
2022-12-31T09:26:35.819Z,100164.78
2022-12-31T09:29:15.803Z,100171.03
2022-12-31T09:31:51.539Z,100171.41
2022-12-31T09:34:27.183Z,100159.97
2022-12-31T09:37:07.101Z,100168.22
2022-12-31T09:39:44.997Z,100178.00
2022-12-31T09:42:48.264Z,100177.25
2022-12-31T09:45:34.005Z,100181.69
2022-12-31T09:48:00.268Z,100173.25
2022-12-31T09:50:49.352Z,100177.84
2022-12-31T09:53:30.919Z,100172.13
2022-12-31T09:56:17.647Z,100172.25
2022-12-31T09:59:06.899Z,100178.06
2022-12-31T10:01:55.666Z,100169.56
2022-12-31T10:04:43.246Z,100189.28
2022-12-31T10:07:25.001Z,100188.56
2022-12-31T10:09:54.560Z,100196.31
2022-12-31T10:12:34.780Z,100189.50
2022-12-31T10:15:10.170Z,100197.72
2022-12-31T10:17:49.408Z,100196.13
2022-12-31T10:20:32.440Z,100199.84
2022-12-31T10:23:24.501Z,100200.75
2022-12-31T10:26:02.850Z,100196.53
2022-12-31T10:28:54.804Z,100198.59
2022-12-31T10:31:37.584Z,100198.72
2022-12-31T10:34:34.854Z,100193.31
2022-12-31T10:37:10.972Z,100198.78
2022-12-31T10:39:59.661Z,100192.81
2022-12-31T10:42:50.484Z,100199.13
2022-12-31T10:45:39.018Z,100175.75
2022-12-31T10:48:17.339Z,100192.56
2022-12-31T10:51:18.938Z,100194.69
2022-12-31T10:54:05.718Z,100198.84
2022-12-31T10:56:58.569Z,100186.06
2022-12-31T11:00:10.166Z,100181.59
2022-12-31T11:03:05.761Z,100186.66
2022-12-31T11:06:00.117Z,100181.75
2022-12-31T11:08:41.826Z,100193.69
2022-12-31T11:11:26.471Z,100200.19
2022-12-31T11:14:14.533Z,100202.59
2022-12-31T11:17:05.639Z,100205.78
2022-12-31T11:19:40.961Z,100197.16
2022-12-31T11:22:29.061Z,100213.94
2022-12-31T11:25:22.538Z,100215.75
2022-12-31T11:28:22.096Z,100206.34
2022-12-31T11:31:20.091Z,100200.19
2022-12-31T11:34:13.837Z,100183.59
2022-12-31T11:36:52.955Z,100191.00
2022-12-31T11:39:42.586Z,100204.19
2022-12-31T11:42:21.002Z,100210.31
2022-12-31T11:45:04.697Z,100202.22
2022-12-31T11:48:04.250Z,100192.78
2022-12-31T11:50:38.510Z,100193.09
2022-12-31T11:53:23.884Z,100191.06
2022-12-31T11:56:00.464Z,100186.25
2022-12-31T11:58:28.915Z,100195.72
2022-12-31T12:01:11.356Z,100191.78
2022-12-31T12:03:42.527Z,100198.44
2022-12-31T12:06:14.201Z,100193.53
2022-12-31T12:08:41.222Z,100191.06
2022-12-31T12:11:18.703Z,100187.56
2022-12-31T12:13:45.108Z,100176.03
2022-12-31T12:16:11.628Z,100178.59
2022-12-31T12:18:45.290Z,100184.75
2022-12-31T12:21:12.565Z,100177.78
2022-12-31T12:23:39.502Z,100172.38
2022-12-31T12:26:06.916Z,100178.59
2022-12-31T12:28:44.477Z,100176.53
2022-12-31T12:31:20.672Z,100168.59
2022-12-31T12:33:47.918Z,100171.56
2022-12-31T12:36:15.823Z,100171.06
2022-12-31T12:38:43.129Z,100177.25
2022-12-31T12:41:25.324Z,100174.47
2022-12-31T12:44:06.068Z,100172.38
2022-12-31T12:46:48.308Z,100162.91
2022-12-31T12:49:37.095Z,100153.47
2022-12-31T12:52:37.891Z,100154.28
2022-12-31T12:55:57.901Z,100158.44
2022-12-31T12:58:36.108Z,100150.63
2022-12-31T13:01:12.432Z,100149.81
2022-12-31T13:04:23.437Z,100163.34
2022-12-31T13:06:58.192Z,100150.53
2022-12-31T13:09:51.413Z,100159.09
2022-12-31T13:12:23.663Z,100146.41
2022-12-31T13:15:03.868Z,100159.47
2022-12-31T13:17:32.858Z,100160.75
2022-12-31T13:20:06.149Z,100145.72
2022-12-31T13:22:37.749Z,100160.25
2022-12-31T13:25:21.913Z,100156.63
2022-12-31T13:27:50.665Z,100159.94
2022-12-31T13:30:23.308Z,100148.91
2022-12-31T13:32:57.602Z,100136.88
2022-12-31T13:35:34.419Z,100127.56
2022-12-31T13:38:09.841Z,100139.03
2022-12-31T13:41:00.376Z,100139.41
2022-12-31T13:43:43.393Z,100137.03
2022-12-31T13:46:26.445Z,100131.69
2022-12-31T13:48:56.481Z,100135.66
2022-12-31T13:51:34.854Z,100131.13
2022-12-31T13:54:13.712Z,100125.34
2022-12-31T13:56:40.881Z,100115.47
2022-12-31T13:59:15.496Z,100118.72
2022-12-31T14:02:00.677Z,100118.28
2022-12-31T14:04:50.478Z,100130.00
2022-12-31T14:07:20.628Z,100134.84
2022-12-31T14:09:47.127Z,100143.53
2022-12-31T14:12:17.853Z,100152.88
2022-12-31T14:15:01.703Z,100153.59
2022-12-31T14:17:54.284Z,100145.38
2022-12-31T14:20:42.639Z,100154.75
2022-12-31T14:23:23.907Z,100149.91
2022-12-31T14:26:01.389Z,100162.16
2022-12-31T14:28:32.331Z,100159.53
2022-12-31T14:31:13.755Z,100161.88
2022-12-31T14:34:07.735Z,100161.53
2022-12-31T14:36:50.096Z,100157.34
2022-12-31T14:39:29.438Z,100153.56
2022-12-31T14:42:15.976Z,100143.91
2022-12-31T14:44:45.725Z,100150.81
2022-12-31T14:47:27.172Z,100159.72
2022-12-31T14:50:06.039Z,100172.41
2022-12-31T14:52:35.118Z,100163.78
2022-12-31T14:55:07.854Z,100159.00
2022-12-31T14:58:09.640Z,100158.63
2022-12-31T15:00:34.279Z,100170.94
2022-12-31T15:03:23.488Z,100173.34
2022-12-31T15:06:19.365Z,100167.94
2022-12-31T15:09:07.491Z,100182.31
2022-12-31T15:11:45.981Z,100192.13
2022-12-31T15:14:24.790Z,100187.91
2022-12-31T15:17:09.091Z,100190.28
2022-12-31T15:19:56.830Z,100193.88
2022-12-31T15:22:35.437Z,100184.78
2022-12-31T15:25:01.946Z,100185.59
2022-12-31T15:27:30.477Z,100184.72
2022-12-31T15:29:56.962Z,100182.81
2022-12-31T15:32:31.844Z,100185.53
2022-12-31T15:35:29.508Z,100189.56
2022-12-31T15:38:04.036Z,100188.16
2022-12-31T15:40:30.705Z,100182.50
2022-12-31T15:43:04.333Z,100186.53
2022-12-31T15:45:37.603Z,100185.22
2022-12-31T15:48:26.031Z,100186.38
2022-12-31T15:50:55.537Z,100193.53
2022-12-31T15:53:29.609Z,100190.66
2022-12-31T15:55:58.199Z,100201.50
2022-12-31T15:58:26.895Z,100196.03
2022-12-31T16:01:02.825Z,100208.16
2022-12-31T16:03:30.853Z,100212.50
2022-12-31T16:06:02.494Z,100212.22
2022-12-31T16:08:31.495Z,100215.47
2022-12-31T16:10:58.423Z,100212.97
2022-12-31T16:13:26.320Z,100206.81
2022-12-31T16:16:00.283Z,100209.09
2022-12-31T16:18:36.732Z,100212.41
2022-12-31T16:21:03.158Z,100209.19
2022-12-31T16:23:29.602Z,100208.69
2022-12-31T16:25:59.875Z,100205.31
2022-12-31T16:28:30.446Z,100209.13
2022-12-31T16:31:03.383Z,100211.78
2022-12-31T16:33:30.479Z,100221.47
2022-12-31T16:35:58.619Z,100216.22
2022-12-31T16:38:33.131Z,100218.31
2022-12-31T16:41:02.183Z,100221.19
2022-12-31T16:43:39.720Z,100218.56
2022-12-31T16:46:16.871Z,100216.91
2022-12-31T16:48:48.728Z,100217.13
2022-12-31T16:51:23.585Z,100226.09
2022-12-31T16:53:50.308Z,100218.19
2022-12-31T16:56:25.032Z,100221.50
2022-12-31T16:58:59.052Z,100220.13
2022-12-31T17:01:25.635Z,100212.25
2022-12-31T17:03:55.666Z,100224.28
2022-12-31T17:06:22.364Z,100220.09
2022-12-31T17:09:00.786Z,100218.03
2022-12-31T17:11:33.661Z,100219.84
2022-12-31T17:14:13.687Z,100214.13
2022-12-31T17:16:57.746Z,100213.31
2022-12-31T17:19:36.940Z,100215.09
2022-12-31T17:22:05.247Z,100215.78
2022-12-31T17:24:31.600Z,100210.19
2022-12-31T17:27:04.219Z,100220.69
2022-12-31T17:29:30.687Z,100216.69
2022-12-31T17:31:59.455Z,100223.28
2022-12-31T17:34:47.408Z,100216.69
2022-12-31T17:38:07.267Z,100216.44
2022-12-31T17:40:51.574Z,100206.16
2022-12-31T17:44:10.314Z,100211.66
2022-12-31T17:47:20.945Z,100214.38
2022-12-31T17:53:56.316Z,100204.84
2022-12-31T18:00:22.964Z,100223.81
2022-12-31T18:03:21.759Z,100226.84
2022-12-31T18:05:53.217Z,100237.91
2022-12-31T18:09:04.551Z,100220.59
2022-12-31T18:11:32.346Z,100237.59
2022-12-31T18:17:59.450Z,100224.94
2022-12-31T18:20:26.373Z,100234.56
2022-12-31T18:22:55.893Z,100234.56
2022-12-31T18:25:30.388Z,100234.28
2022-12-31T18:28:08.790Z,100236.53
2022-12-31T18:30:35.293Z,100246.91
2022-12-31T18:33:09.454Z,100240.50
2022-12-31T18:38:57.895Z,100254.16
2022-12-31T18:41:36.464Z,100246.13
2022-12-31T18:44:14.772Z,100248.69
2022-12-31T18:46:41.354Z,100252.91
2022-12-31T18:49:16.357Z,100254.31
2022-12-31T18:51:42.786Z,100249.81
2022-12-31T18:54:10.619Z,100259.69
2022-12-31T18:56:47.187Z,100270.47
2022-12-31T18:59:18.125Z,100266.94
2022-12-31T19:01:51.992Z,100270.50
2022-12-31T19:04:27.020Z,100279.44
2022-12-31T19:06:54.767Z,100284.09
2022-12-31T19:12:14.004Z,100276.72
2022-12-31T19:14:43.576Z,100277.41
2022-12-31T19:19:35.251Z,100286.78
2022-12-31T19:22:02.543Z,100281.81
2022-12-31T19:24:29.045Z,100282.03
2022-12-31T19:26:55.460Z,100281.78
2022-12-31T19:29:26.752Z,100282.44
2022-12-31T19:31:53.491Z,100285.03
2022-12-31T19:34:19.918Z,100292.22
2022-12-31T19:36:46.313Z,100287.41
2022-12-31T19:39:17.202Z,100281.13
2022-12-31T19:41:44.361Z,100288.44
2022-12-31T19:44:16.126Z,100291.00
2022-12-31T19:46:42.603Z,100283.81
2022-12-31T19:49:13.203Z,100290.38
2022-12-31T19:51:39.822Z,100291.09
2022-12-31T19:54:06.982Z,100288.16
2022-12-31T19:56:33.548Z,100287.16
2022-12-31T19:59:05.496Z,100298.50
2022-12-31T20:01:32.005Z,100295.75
2022-12-31T20:03:58.519Z,100300.25
2022-12-31T20:06:24.952Z,100298.78
2022-12-31T20:08:51.300Z,100310.09
2022-12-31T20:11:20.416Z,100308.72
2022-12-31T20:13:48.205Z,100302.63
2022-12-31T20:16:17.092Z,100308.63
2022-12-31T20:18:44.746Z,100306.78
2022-12-31T20:21:12.344Z,100311.09
2022-12-31T20:23:38.798Z,100311.56
2022-12-31T20:26:05.346Z,100299.50
2022-12-31T20:28:31.718Z,100299.84
2022-12-31T20:30:58.109Z,100297.09
2022-12-31T20:33:24.484Z,100305.66
2022-12-31T20:35:51.137Z,100296.00
2022-12-31T20:38:17.525Z,100300.28
2022-12-31T20:40:46.861Z,100310.44
2022-12-31T20:43:13.911Z,100306.75
2022-12-31T20:45:41.411Z,100304.75
2022-12-31T20:48:07.960Z,100298.84
2022-12-31T20:50:34.428Z,100311.66
2022-12-31T20:53:00.888Z,100310.22
2022-12-31T20:55:27.430Z,100309.44
2022-12-31T20:57:53.872Z,100310.47
2022-12-31T21:00:20.216Z,100304.56
2022-12-31T21:02:53.160Z,100311.66
2022-12-31T21:05:24.324Z,100314.44
2022-12-31T21:07:50.898Z,100310.63
2022-12-31T21:10:17.387Z,100312.03
2022-12-31T21:12:43.804Z,100315.81
2022-12-31T21:15:13.196Z,100317.28
2022-12-31T21:17:39.796Z,100319.97
2022-12-31T21:20:06.888Z,100323.91
2022-12-31T21:22:33.795Z,100318.47
2022-12-31T21:25:06.622Z,100323.00
2022-12-31T21:27:33.244Z,100334.06
2022-12-31T21:30:18.184Z,100330.72
2022-12-31T21:32:45.633Z,100323.91
2022-12-31T21:35:41.594Z,100339.91
2022-12-31T21:38:02.142Z,100336.25
2022-12-31T21:40:29.257Z,100338.72
2022-12-31T21:42:55.776Z,100343.06
2022-12-31T21:45:22.183Z,100352.06
2022-12-31T21:48:07.231Z,100354.50
2022-12-31T21:50:34.120Z,100362.06
2022-12-31T21:53:00.531Z,100360.00
2022-12-31T21:55:45.528Z,100368.47
2022-12-31T21:58:28.316Z,100363.44
2022-12-31T22:01:17.356Z,100370.53
2022-12-31T22:03:44.492Z,100376.41
2022-12-31T22:06:14.017Z,100384.72
2022-12-31T22:08:41.804Z,100372.19
2022-12-31T22:11:09.309Z,100376.22
2022-12-31T22:13:36.079Z,100383.25
2022-12-31T22:16:05.667Z,100379.66
2022-12-31T22:18:35.591Z,100384.94
2022-12-31T22:21:19.412Z,100385.63
2022-12-31T22:23:54.480Z,100387.94
2022-12-31T22:26:23.400Z,100399.53
2022-12-31T22:28:50.697Z,100393.34
2022-12-31T22:31:19.512Z,100393.88
2022-12-31T22:33:46.128Z,100406.72
2022-12-31T22:36:15.614Z,100395.88
2022-12-31T22:38:42.547Z,100398.75
2022-12-31T22:41:19.624Z,100396.72
2022-12-31T22:43:48.585Z,100407.34
2022-12-31T22:46:16.403Z,100405.88
2022-12-31T22:48:43.198Z,100410.44
2022-12-31T22:51:13.832Z,100412.09
2022-12-31T22:53:41.224Z,100407.94
2022-12-31T22:56:08.405Z,100418.66
2022-12-31T22:58:34.841Z,100407.97
2022-12-31T23:01:04.922Z,100412.63
2022-12-31T23:03:31.581Z,100411.78
2022-12-31T23:05:58.022Z,100419.84
2022-12-31T23:08:24.531Z,100420.81
2022-12-31T23:11:05.185Z,100421.53
2022-12-31T23:13:56.359Z,100423.09
2022-12-31T23:16:42.684Z,100433.75
2022-12-31T23:19:27.980Z,100426.16
2022-12-31T23:22:13.195Z,100418.81
2022-12-31T23:24:39.733Z,100429.25
2022-12-31T23:27:06.446Z,100422.25
2022-12-31T23:29:32.949Z,100432.00
2022-12-31T23:31:59.386Z,100432.00
2022-12-31T23:34:25.796Z,100443.75
2022-12-31T23:36:52.332Z,100446.22
2022-12-31T23:39:18.697Z,100440.41
2022-12-31T23:41:45.081Z,100443.03
2022-12-31T23:44:14.258Z,100449.44
2022-12-31T23:46:41.091Z,100454.09
2022-12-31T23:49:07.642Z,100447.28
2022-12-31T23:51:35.944Z,100451.69
2022-12-31T23:54:05.809Z,100460.50
2022-12-31T23:56:32.188Z,100455.50
2022-12-31T23:58:59.767Z,100443.50
